Time;durP1;ratioP1;P1;durP2;ratioP2;P2;SDS_P1;SDS_P2;PMS_P1;PMS_P2;Temp;Humidity;BMP_temperature;BMP_pressure;BME280_temperature;BME280_humidity;BME280_pressure;Samples;Min_cycle;Max_cycle;Signal;HPM_P1;HPM_P2
2021/07/16 00:02:25;;;;;;;1999.90;999.90;;;5.90;99.90;;;;;;5053106;28;20171;-44
2021/07/16 00:04:52;;;;;;;1999.90;999.90;;;6.00;99.90;;;;;;5053865;28;20556;-44
2021/07/16 00:07:19;;;;;;;1999.90;999.90;;;6.00;99.90;;;;;;5053890;28;20184;-44
2021/07/16 00:09:46;;;;;;;1999.90;999.90;;;5.90;99.90;;;;;;5053715;28;20169;-44
2021/07/16 00:12:12;;;;;;;1999.90;999.90;;;5.80;99.90;;;;;;5053889;28;20181;-43
2021/07/16 00:14:39;;;;;;;1999.90;999.90;;;5.90;99.90;;;;;;5053640;28;20161;-43
2021/07/16 00:17:06;;;;;;;1999.90;999.90;;;5.90;99.90;;;;;;5053421;28;20709;-44
2021/07/16 00:19:33;;;;;;;1999.90;999.90;;;5.80;99.90;;;;;;5053611;28;20519;-44
2021/07/16 00:22:00;;;;;;;1999.90;999.90;;;5.90;99.90;;;;;;5053498;28;20196;-44
2021/07/16 00:24:26;;;;;;;1999.90;999.90;;;5.80;99.90;;;;;;5053555;28;20539;-44
2021/07/16 00:26:53;;;;;;;1999.90;999.90;;;5.80;99.90;;;;;;5053482;28;20168;-43
2021/07/16 00:29:20;;;;;;;1999.90;999.90;;;5.80;99.90;;;;;;5053532;28;20160;-43
2021/07/16 00:31:47;;;;;;;1999.90;999.90;;;5.80;99.90;;;;;;5053446;28;20175;-43
2021/07/16 00:34:14;;;;;;;1999.90;999.90;;;5.60;99.90;;;;;;5053479;28;20246;-44
2021/07/16 00:36:41;;;;;;;1999.90;999.90;;;5.70;99.90;;;;;;5053259;28;20614;-42
2021/07/16 00:39:08;;;;;;;1999.90;999.90;;;5.60;99.90;;;;;;5053276;28;20209;-42
2021/07/16 00:41:34;;;;;;;1999.90;999.90;;;5.50;99.90;;;;;;5053226;28;20677;-43
2021/07/16 00:44:02;;;;;;;1999.90;999.90;;;5.40;99.90;;;;;;5053190;28;20218;-44
2021/07/16 00:46:29;;;;;;;1999.90;999.90;;;5.30;99.90;;;;;;5053090;28;20220;-44
2021/07/16 00:48:56;;;;;;;1999.90;999.90;;;5.40;99.90;;;;;;5053182;28;20658;-44
2021/07/16 00:51:23;;;;;;;1999.90;999.90;;;5.40;99.90;;;;;;5053082;28;20260;-43
2021/07/16 00:53:49;;;;;;;1999.90;999.90;;;5.30;99.90;;;;;;5053073;28;20176;-43
2021/07/16 00:56:16;;;;;;;1999.90;999.90;;;5.30;99.90;;;;;;5053077;28;20169;-43
2021/07/16 00:58:43;;;;;;;1999.90;999.90;;;5.30;99.90;;;;;;5053103;28;20175;-43
2021/07/16 01:01:10;;;;;;;1999.90;999.90;;;5.30;99.90;;;;;;5052922;28;20172;-44
2021/07/16 01:03:37;;;;;;;1999.90;999.90;;;5.30;99.90;;;;;;5052901;28;20659;-43
2021/07/16 01:06:04;;;;;;;1999.90;999.90;;;5.30;99.90;;;;;;5052904;28;20175;-43
2021/07/16 01:08:31;;;;;;;1999.90;999.90;;;5.30;99.90;;;;;;5052882;28;20182;-43
2021/07/16 01:10:59;;;;;;;1999.90;999.90;;;5.30;99.90;;;;;;5052794;28;20207;-43
2021/07/16 01:13:26;;;;;;;1999.90;999.90;;;5.40;99.90;;;;;;5052680;28;20198;-43
2021/07/16 01:15:55;;;;;;;1999.90;999.90;;;5.40;99.90;;;;;;5052649;28;20177;-43
2021/07/16 01:18:23;;;;;;;1999.90;999.90;;;5.40;99.90;;;;;;5052494;28;20234;-43
2021/07/16 01:20:50;;;;;;;1999.90;999.90;;;5.30;99.90;;;;;;5052671;28;20178;-43
2021/07/16 01:23:24;;;;;;;1999.90;999.90;;;5.30;99.90;;;;;;5052939;28;20174;-43
2021/07/16 01:25:52;;;;;;;1999.90;999.90;;;5.20;99.90;;;;;;5052617;28;20174;-43
2021/07/16 01:28:21;;;;;;;1999.90;999.90;;;5.20;99.90;;;;;;5052801;28;20176;-43
2021/07/16 01:30:53;;;;;;;1999.90;999.90;;;5.10;99.90;;;;;;5052741;28;20249;-43
2021/07/16 01:33:21;;;;;;;1999.90;999.90;;;5.10;99.90;;;;;;5053196;28;20514;-43
2021/07/16 01:35:48;;;;;;;1999.90;999.90;;;5.00;99.90;;;;;;5052674;28;20181;-43
2021/07/16 01:38:15;;;;;;;1999.90;999.90;;;5.00;99.90;;;;;;5052466;28;20204;-42
2021/07/16 01:40:42;;;;;;;1999.90;999.90;;;4.90;99.90;;;;;;5052538;28;20173;-43
2021/07/16 01:43:11;;;;;;;1999.90;999.90;;;4.90;99.90;;;;;;5052506;28;20649;-44
2021/07/16 01:45:42;;;;;;;1999.90;999.90;;;5.00;99.90;;;;;;5052501;28;20323;-43
2021/07/16 01:48:12;;;;;;;1999.90;999.90;;;4.90;99.90;;;;;;5052555;28;20263;-43
2021/07/16 01:50:43;;;;;;;1999.90;999.90;;;5.00;99.90;;;;;;5052410;28;20178;-43
2021/07/16 01:53:11;;;;;;;1999.90;999.90;;;4.90;99.90;;;;;;5052485;28;20298;-43
2021/07/16 01:55:39;;;;;;;1999.90;999.90;;;4.90;99.90;;;;;;5052378;28;20171;-43
2021/07/16 01:58:09;;;;;;;1999.90;999.90;;;4.90;99.90;;;;;;5052299;28;20226;-43
2021/07/16 02:00:47;;;;;;;1999.90;999.90;;;4.90;99.90;;;;;;5052278;28;20180;-43
2021/07/16 02:03:16;;;;;;;1999.90;999.90;;;4.90;99.90;;;;;;5052400;28;20177;-43
2021/07/16 02:05:45;;;;;;;1999.90;999.90;;;4.90;99.90;;;;;;5052213;28;20176;-44
2021/07/16 02:08:15;;;;;;;1999.90;999.90;;;5.00;99.90;;;;;;5052186;28;20180;-43
2021/07/16 02:10:48;;;;;;;1999.90;999.90;;;5.00;99.90;;;;;;5052587;28;20161;-49
2021/07/16 02:13:15;;;;;;;1999.90;999.90;;;5.10;99.90;;;;;;5052355;28;20157;-43
2021/07/16 02:15:46;;;;;;;1999.90;999.90;;;5.10;99.90;;;;;;5052208;28;20181;-43
2021/07/16 02:18:15;;;;;;;1999.90;999.90;;;5.00;99.90;;;;;;5051969;28;20248;-43
2021/07/16 02:20:42;;;;;;;1999.90;999.90;;;5.00;99.90;;;;;;5052221;28;20177;-43
2021/07/16 02:23:13;;;;;;;1999.90;999.90;;;5.00;99.90;;;;;;5052071;28;20173;-43
2021/07/16 02:25:40;;;;;;;1999.90;999.90;;;4.90;99.90;;;;;;5055333;28;20172;-43
2021/07/16 02:28:10;;;;;;;1999.90;999.90;;;4.80;99.90;;;;;;5055766;28;20266;-43
2021/07/16 02:30:37;;;;;;;1999.90;999.90;;;4.80;99.90;;;;;;5055855;28;20319;-43
2021/07/16 02:33:04;;;;;;;1999.90;999.90;;;4.80;99.90;;;;;;5055671;28;20175;-43
2021/07/16 02:35:31;;;;;;;1999.90;999.90;;;4.80;99.90;;;;;;5055699;28;20615;-43
2021/07/16 02:38:03;;;;;;;1999.90;999.90;;;4.70;99.90;;;;;;5055621;28;20199;-43
2021/07/16 02:40:30;;;;;;;1999.90;999.90;;;4.80;99.90;;;;;;5055573;28;20535;-43
2021/07/16 02:42:57;;;;;;;1999.90;999.90;;;4.80;99.90;;;;;;5055536;28;20167;-43
2021/07/16 02:45:25;;;;;;;1999.90;999.90;;;4.70;99.90;;;;;;5055506;28;20188;-43
2021/07/16 02:47:53;;;;;;;1999.90;999.90;;;4.80;99.90;;;;;;5055495;28;20178;-44
2021/07/16 02:50:29;;;;;;;1999.90;999.90;;;4.80;99.90;;;;;;5055408;28;20654;-44
2021/07/16 02:52:56;;;;;;;1999.90;999.90;;;4.90;99.90;;;;;;5055678;28;20219;-43
2021/07/16 02:55:24;;;;;;;1999.90;999.90;;;4.90;99.90;;;;;;5055356;28;20576;-43
2021/07/16 02:57:51;;;;;;;1999.90;999.90;;;4.90;99.90;;;;;;5055113;28;20205;-43
2021/07/16 03:00:21;;;;;;;1999.90;999.90;;;4.90;99.90;;;;;;5055192;28;20248;-43
2021/07/16 03:02:50;;;;;;;1999.90;999.90;;;4.80;99.90;;;;;;5055160;28;20178;-43
2021/07/16 03:05:29;;;;;;;1999.90;999.90;;;4.80;99.90;;;;;;5055127;28;20620;-43
2021/07/16 03:07:59;;;;;;;1999.90;999.90;;;4.70;99.90;;;;;;5055168;28;20607;-48
2021/07/16 03:10:39;;;;;;;1999.90;999.90;;;4.80;99.90;;;;;;5055214;28;20178;-43
2021/07/16 03:13:11;;;;;;;1999.90;999.90;;;4.70;99.90;;;;;;5055378;28;20572;-43
2021/07/16 03:15:38;;;;;;;1999.90;999.90;;;4.70;99.90;;;;;;5054957;28;20154;-43
2021/07/16 03:18:07;;;;;;;1999.90;999.90;;;4.80;99.90;;;;;;5054613;28;20229;-43
2021/07/16 03:20:41;;;;;;;1999.90;999.90;;;4.80;99.90;;;;;;5054779;28;20171;-43
2021/07/16 03:23:10;;;;;;;1999.90;999.90;;;4.80;99.90;;;;;;5054816;28;20164;-43
2021/07/16 03:25:38;;;;;;;1999.90;999.90;;;4.90;99.90;;;;;;5054723;28;20162;-43
2021/07/16 03:28:10;;;;;;;1999.90;999.90;;;4.90;99.90;;;;;;5054718;28;20223;-43
2021/07/16 03:30:38;;;;;;;1999.90;999.90;;;4.90;99.90;;;;;;5054718;28;20184;-43
2021/07/16 03:33:05;;;;;;;1999.90;999.90;;;4.90;99.90;;;;;;5054518;28;20175;-43
2021/07/16 03:35:32;;;;;;;1999.90;999.90;;;4.80;99.90;;;;;;5054540;28;20220;-43
2021/07/16 03:37:59;;;;;;;1999.90;999.90;;;4.70;99.90;;;;;;5054529;28;20202;-43
2021/07/16 03:40:28;;;;;;;1999.90;999.90;;;4.80;99.90;;;;;;5054396;28;20172;-43
2021/07/16 03:42:56;;;;;;;1999.90;999.90;;;4.80;99.90;;;;;;5054420;28;20173;-43
2021/07/16 03:45:23;;;;;;;1999.90;999.90;;;4.70;99.90;;;;;;5054326;28;20554;-43
2021/07/16 03:47:51;;;;;;;1999.90;999.90;;;4.70;99.90;;;;;;5054333;28;20170;-43
2021/07/16 03:50:20;;;;;;;1999.90;999.90;;;4.70;99.90;;;;;;5054216;28;20166;-43
2021/07/16 03:52:47;;;;;;;1999.90;999.90;;;4.60;99.90;;;;;;5054211;28;20169;-43
2021/07/16 03:55:14;;;;;;;1999.90;999.90;;;4.50;99.90;;;;;;5052943;28;20192;-43
2021/07/16 03:57:46;;;;;;;1999.90;999.90;;;4.60;99.90;;;;;;5053990;28;20212;-43
2021/07/16 04:00:16;;;;;;;1999.90;999.90;;;4.60;99.90;;;;;;5054045;28;20165;-43
2021/07/16 04:02:44;;;;;;;1999.90;999.90;;;4.50;99.90;;;;;;5053971;28;20188;-43
2021/07/16 04:05:11;;;;;;;1999.90;999.90;;;4.50;99.90;;;;;;5053914;28;20174;-43
2021/07/16 04:07:45;;;;;;;1999.90;999.90;;;4.40;99.90;;;;;;5053857;28;20169;-43
2021/07/16 04:10:17;;;;;;;1999.90;999.90;;;4.30;99.90;;;;;;5053835;28;20169;-44
2021/07/16 04:12:50;;;;;;;1999.90;999.90;;;4.20;99.90;;;;;;5053907;28;20705;-43
2021/07/16 04:15:17;;;;;;;1999.90;999.90;;;4.30;99.90;;;;;;5053845;28;20154;-43
2021/07/16 04:17:44;;;;;;;1999.90;999.90;;;4.30;99.90;;;;;;5053429;28;20311;-43
2021/07/16 04:20:12;;;;;;;1999.90;999.90;;;4.40;99.90;;;;;;5053769;28;20229;-50
2021/07/16 04:22:39;;;;;;;1999.90;999.90;;;4.30;99.90;;;;;;5053578;28;20568;-43
2021/07/16 04:25:08;;;;;;;1999.90;999.90;;;4.20;99.90;;;;;;5053492;28;20177;-42
2021/07/16 04:27:34;;;;;;;1999.90;999.90;;;4.20;99.90;;;;;;5053648;28;20592;-43
2021/07/16 04:30:01;;;;;;;1999.90;999.90;;;4.20;99.90;;;;;;5053535;28;20185;-43
2021/07/16 04:32:28;;;;;;;1999.90;999.90;;;4.10;99.90;;;;;;5052455;28;20618;-43
2021/07/16 04:34:55;;;;;;;1999.90;999.90;;;4.00;99.90;;;;;;5053392;28;20256;-43
2021/07/16 04:37:22;;;;;;;1999.90;999.90;;;4.10;99.90;;;;;;5053264;28;20200;-43
2021/07/16 04:39:49;;;;;;;1999.90;999.90;;;4.10;99.90;;;;;;5053269;28;20248;-43
2021/07/16 04:42:16;;;;;;;1999.90;999.90;;;4.20;99.90;;;;;;5053179;28;20177;-43
2021/07/16 04:44:43;;;;;;;1999.90;999.90;;;4.10;99.90;;;;;;5053250;28;20244;-43
2021/07/16 04:47:09;;;;;;;1999.90;999.90;;;4.20;99.90;;;;;;5052769;28;20170;-43
2021/07/16 04:49:36;;;;;;;1999.90;999.90;;;4.20;99.90;;;;;;5053287;28;20661;-43
2021/07/16 04:52:03;;;;;;;1999.90;999.90;;;4.20;99.90;;;;;;5053333;28;20244;-43
2021/07/16 04:54:30;;;;;;;1999.90;999.90;;;4.20;99.90;;;;;;5052991;28;20239;-43
2021/07/16 04:56:57;;;;;;;1999.90;999.90;;;4.20;99.90;;;;;;5053022;28;20197;-43
2021/07/16 04:59:24;;;;;;;1999.90;999.90;;;4.30;99.90;;;;;;5052921;28;20186;-44
2021/07/16 05:01:52;;;;;;;1999.90;999.90;;;4.30;99.90;;;;;;5052972;28;20222;-43
2021/07/16 05:04:19;;;;;;;1999.90;999.90;;;4.30;99.90;;;;;;5053000;28;20176;-44
2021/07/16 05:06:46;;;;;;;1999.90;999.90;;;4.30;99.90;;;;;;5052840;28;20165;-43
2021/07/16 05:09:14;;;;;;;1999.90;999.90;;;4.30;99.90;;;;;;5052885;28;20164;-43
2021/07/16 05:11:41;;;;;;;1999.90;999.90;;;4.30;99.90;;;;;;5052710;28;20654;-43
2021/07/16 05:14:08;;;;;;;1999.90;999.90;;;4.30;99.90;;;;;;5052948;28;20623;-43
2021/07/16 05:16:35;;;;;;;1999.90;999.90;;;4.40;99.90;;;;;;5052577;28;20239;-43
2021/07/16 05:19:02;;;;;;;1999.90;999.90;;;4.30;99.90;;;;;;5051457;28;20171;-43
2021/07/16 05:21:29;;;;;;;1999.90;999.90;;;4.30;99.90;;;;;;5052772;28;20185;-43
2021/07/16 05:23:56;;;;;;;1999.90;999.90;;;4.20;99.90;;;;;;5052602;28;20169;-43
2021/07/16 05:26:23;;;;;;;1999.90;999.90;;;4.10;99.90;;;;;;5052665;28;20178;-43
2021/07/16 05:28:49;;;;;;;1999.90;999.90;;;4.00;99.90;;;;;;5052657;28;20201;-42
2021/07/16 05:31:18;;;;;;;1999.90;999.90;;;4.10;99.90;;;;;;5052546;28;20185;-43
2021/07/16 05:33:46;;;;;;;1999.90;999.90;;;4.10;99.90;;;;;;5052429;28;20166;-42
2021/07/16 05:36:14;;;;;;;1999.90;999.90;;;4.20;99.90;;;;;;5052579;28;20169;-42
2021/07/16 05:38:41;;;;;;;1999.90;999.90;;;4.10;99.90;;;;;;5052606;28;20208;-43
2021/07/16 05:41:09;;;;;;;1999.90;999.90;;;4.10;99.90;;;;;;5052320;28;20214;-42
2021/07/16 05:43:36;;;;;;;1999.90;999.90;;;4.00;99.90;;;;;;5052288;28;20169;-42
2021/07/16 05:46:04;;;;;;;1999.90;999.90;;;4.00;99.90;;;;;;5052181;28;20200;-44
2021/07/16 05:48:32;;;;;;;1999.90;999.90;;;4.00;99.90;;;;;;5052132;28;20329;-43
2021/07/16 05:51:00;;;;;;;1999.90;999.90;;;4.00;99.90;;;;;;5052118;28;20299;-42
2021/07/16 05:53:29;;;;;;;1999.90;999.90;;;4.20;99.90;;;;;;5051953;28;20300;-43
2021/07/16 05:55:58;;;;;;;1999.90;999.90;;;4.10;99.90;;;;;;5051908;28;20174;-42
2021/07/16 05:58:24;;;;;;;1999.90;999.90;;;4.10;99.90;;;;;;5051755;28;20212;-42
2021/07/16 06:00:52;;;;;;;1999.90;999.90;;;4.10;99.90;;;;;;5055500;28;20191;-43
2021/07/16 06:03:19;;;;;;;1999.90;999.90;;;4.00;99.90;;;;;;5055946;28;20166;-42
2021/07/16 06:05:46;;;;;;;1999.90;999.90;;;4.00;99.90;;;;;;5055874;28;20215;-41
2021/07/16 06:08:13;;;;;;;1999.90;999.90;;;4.00;99.90;;;;;;5056099;28;20247;-55
2021/07/16 06:10:40;;;;;;;1999.90;999.90;;;4.20;99.90;;;;;;5055976;28;20248;-53
2021/07/16 06:13:07;;;;;;;1999.90;999.90;;;4.20;99.90;;;;;;5055838;28;20177;-46
2021/07/16 06:15:34;;;;;;;1999.90;999.90;;;4.70;99.90;;;;;;5056066;28;20169;-45
2021/07/16 06:28:59;;;;;;;1999.90;999.90;;;4.70;99.90;;;;;;5130041;27;21156;-48
2021/07/16 06:31:25;;;;;;;1999.90;999.90;;;5.30;99.90;;;;;;5130050;28;20257;-48
2021/07/16 06:33:52;;;;;;;1999.90;999.90;;;5.30;99.90;;;;;;5129570;27;20178;-43
2021/07/16 06:36:19;;;;;;;1999.90;999.90;;;5.30;99.90;;;;;;5130125;27;20179;-48
2021/07/16 06:38:46;;;;;;;1999.90;999.90;;;5.20;99.90;;;;;;5130123;27;20184;-42
2021/07/16 06:41:13;;;;;;;1999.90;999.90;;;5.30;99.90;;;;;;5130673;27;20185;-43
2021/07/16 06:43:39;;;;;;;1999.90;999.90;;;5.30;99.90;;;;;;5130481;27;20170;-42
2021/07/16 06:46:08;;;;;;;1999.90;999.90;;;5.30;99.90;;;;;;5130335;27;20223;-42
2021/07/16 06:48:36;;;;;;;1999.90;999.90;;;5.40;99.90;;;;;;5130143;27;20186;-45
2021/07/16 06:51:03;;;;;;;1999.90;999.90;;;6.20;99.90;;;;;;5130220;27;20167;-46
2021/07/16 06:53:29;;;;;;;1999.90;999.90;;;6.60;99.90;;;;;;5128966;27;20512;-50
2021/07/16 06:55:56;;;;;;;1999.90;999.90;;;7.50;99.90;;;;;;5129885;27;20177;-44
2021/07/16 06:58:23;;;;;;;1999.90;999.90;;;7.40;99.90;;;;;;5129566;27;20694;-54
2021/07/16 07:00:50;;;;;;;1999.90;999.90;;;8.70;99.90;;;;;;5129752;27;20175;-44
2021/07/16 07:15:42;;;;;;;1999.90;999.90;;;8.80;99.90;;;;;;5109849;27;20575;-45
2021/07/16 07:18:09;;;;;;;1999.90;999.90;;;7.50;99.90;;;;;;5109783;28;20174;-45
2021/07/16 07:20:37;;;;;;;1999.90;999.90;;;7.50;99.90;;;;;;5109884;28;20228;-48
2021/07/16 07:23:04;;;;;;;1999.90;999.90;;;7.60;99.90;;;;;;5109443;28;20185;-48
2021/07/16 07:25:31;;;;;;;1999.90;999.90;;;7.50;99.90;;;;;;5109595;28;20178;-44
2021/07/16 07:27:59;;;;;;;1999.90;999.90;;;7.60;99.90;;;;;;5108909;28;20257;-44
2021/07/16 07:30:25;;;;;;;1999.90;999.90;;;7.70;99.90;;;;;;5110022;28;20171;-44
2021/07/16 07:32:52;;;;;;;1999.90;999.90;;;7.80;99.90;;;;;;5110433;28;20496;-45
2021/07/16 07:35:19;;;;;;;1999.90;999.90;;;8.00;99.90;;;;;;5109401;28;20228;-47
2021/07/16 07:37:46;;;;;;;1999.90;999.90;;;8.20;99.90;;;;;;5109789;28;20209;-44
2021/07/16 07:40:15;;;;;;;1999.90;999.90;;;8.40;99.90;;;;;;5109701;28;20179;-48
2021/07/16 07:42:44;;;;;;;1999.90;999.90;;;8.50;99.90;;;;;;5109861;28;20168;-45
2021/07/16 07:45:12;;;;;;;1999.90;999.90;;;8.40;99.90;;;;;;5109689;28;20686;-46
2021/07/16 07:47:39;;;;;;;1999.90;999.90;;;8.50;99.90;;;;;;5109510;28;20182;-46
2021/07/16 07:50:19;;;;;;;1999.90;999.90;;;8.50;99.90;;;;;;5109583;28;20163;-44
2021/07/16 07:52:47;;;;;;;1999.90;999.90;;;8.60;99.90;;;;;;5109572;28;20147;-45
2021/07/16 07:55:16;;;;;;;1999.90;999.90;;;8.70;99.90;;;;;;5109348;28;20166;-47
2021/07/16 07:57:43;;;;;;;1999.90;999.90;;;8.80;99.90;;;;;;5109323;28;20186;-50
2021/07/16 08:00:16;;;;;;;1999.90;999.90;;;8.90;99.90;;;;;;5109309;28;20167;-47
2021/07/16 08:02:43;;;;;;;1999.90;999.90;;;9.00;99.90;;;;;;5109270;28;20567;-50
2021/07/16 08:05:11;;;;;;;1999.90;999.90;;;9.20;99.90;;;;;;5109170;28;20207;-56
2021/07/16 08:07:38;;;;;;;1999.90;999.90;;;9.30;99.90;;;;;;5106881;28;20166;-47
2021/07/16 08:10:13;;;;;;;1999.90;999.90;;;9.50;99.90;;;;;;5087897;28;20221;-49
2021/07/16 08:12:41;;;;;;;1999.90;999.90;;;9.60;99.90;;;;;;5087391;28;20156;-46
2021/07/16 08:15:09;;;;;;;1999.90;999.90;;;9.70;99.90;;;;;;5082430;28;20689;-48
2021/07/16 08:17:36;;;;;;;1999.90;999.90;;;9.90;99.90;;;;;;5073936;28;20192;-47
2021/07/16 08:20:05;;;;;;;1999.90;999.90;;;10.10;99.90;;;;;;5073674;28;20176;-52
2021/07/16 08:22:32;;;;;;;1999.90;999.90;;;10.30;99.90;;;;;;5074152;28;20195;-48
2021/07/16 08:24:58;;;;;;;1999.90;999.90;;;10.50;99.90;;;;;;5073628;28;20220;-50
2021/07/16 08:27:25;;;;;;;1999.90;999.90;;;11.80;99.90;;;;;;5073794;28;20226;-52
2021/07/16 08:29:52;;;;;;;1999.90;999.90;;;12.00;99.90;;;;;;5073688;28;20218;-48
2021/07/16 08:32:19;;;;;;;1999.90;999.90;;;11.90;99.90;;;;;;5073422;28;20183;-50
2021/07/16 08:34:45;;;;;;;1999.90;999.90;;;11.80;99.90;;;;;;5073327;28;20184;-46
2021/07/16 08:37:12;;;;;;;1999.90;999.90;;;11.80;99.90;;;;;;5073372;28;20197;-50
2021/07/16 08:39:40;;;;;;;1999.90;999.90;;;11.80;99.90;;;;;;5072064;28;20229;-49
2021/07/16 08:42:08;;;;;;;1999.90;999.90;;;11.70;99.90;;;;;;5073531;28;20164;-48
2021/07/16 08:44:38;;;;;;;1999.90;999.90;;;11.70;99.90;;;;;;5073460;28;20240;-48
2021/07/16 08:47:05;;;;;;;1999.90;999.90;;;11.90;99.90;;;;;;5073112;28;20711;-50
2021/07/16 08:49:33;;;;;;;1999.90;999.90;;;12.00;99.90;;;;;;5073553;28;20169;-46
2021/07/16 08:52:01;;;;;;;1999.90;999.90;;;12.10;99.90;;;;;;5073243;28;20255;-46
2021/07/16 08:54:30;;;;;;;1999.90;999.90;;;12.30;99.90;;;;;;5072951;28;20177;-49
2021/07/16 08:56:56;;;;;;;1999.90;999.90;;;12.70;99.90;;;;;;5073216;28;20176;-45
2021/07/16 08:59:23;;;;;;;1999.90;999.90;;;12.80;99.90;;;;;;5072896;28;20480;-50
2021/07/16 09:01:50;;;;;;;1999.90;999.90;;;12.90;99.90;;;;;;5073051;28;20173;-51
2021/07/16 09:04:23;;;;;;;1999.90;999.90;;;14.70;99.90;;;;;;5072890;28;20277;-45
2021/07/16 09:06:55;;;;;;;1999.90;999.90;;;14.50;99.90;;;;;;5072674;28;20176;-44
2021/07/16 09:09:31;;;;;;;1999.90;999.90;;;14.50;99.80;;;;;;5072870;28;20183;-55
2021/07/16 09:12:01;;;;;;;1999.90;999.90;;;14.40;96.30;;;;;;5073289;28;20149;-51
2021/07/16 09:14:30;;;;;;;1999.90;999.90;;;14.40;96.50;;;;;;5072728;28;20240;-45
2021/07/16 09:17:05;;;;;;;1999.90;999.90;;;14.40;96.00;;;;;;5073078;28;20173;-49
2021/07/16 09:19:39;;;;;;;1999.90;999.90;;;14.40;94.30;;;;;;5072844;28;20245;-46
2021/07/16 09:22:26;;;;;;;1999.90;999.90;;;14.50;96.20;;;;;;5072435;28;20176;-48
2021/07/16 09:25:00;;;;;;;1999.90;999.90;;;14.50;97.50;;;;;;5073142;28;20653;-48
2021/07/16 09:27:47;;;;;;;1999.90;999.90;;;14.70;99.90;;;;;;5071703;28;20558;-45
2021/07/16 09:30:26;;;;;;;1999.90;999.90;;;14.90;98.30;;;;;;5072506;28;20152;-46
2021/07/16 09:33:02;;;;;;;1999.90;999.90;;;15.20;90.00;;;;;;5072147;28;20183;-47
2021/07/16 09:35:50;;;;;;;1999.90;999.90;;;15.40;78.90;;;;;;5071963;28;20176;-46
2021/07/16 09:38:18;;;;;;;1999.90;999.90;;;15.80;79.00;;;;;;5071997;28;20182;-57
2021/07/16 09:40:53;;;;;;;1999.90;999.90;;;15.80;78.20;;;;;;5071150;28;20255;-49
2021/07/16 09:43:24;;;;;;;1999.90;999.90;;;15.80;69.50;;;;;;5072036;28;20203;-46
2021/07/16 09:46:02;;;;;;;1999.90;999.90;;;15.90;78.00;;;;;;5072860;28;20165;-46
2021/07/16 09:48:34;;;;;;;1999.90;999.90;;;16.00;75.20;;;;;;5072354;28;20165;-56
2021/07/16 09:51:18;;;;;;;1999.90;999.90;;;16.00;69.50;;;;;;5072293;28;20184;-58
2021/07/16 09:53:48;;;;;;;1999.90;999.90;;;16.60;79.60;;;;;;5071990;28;20160;-57
2021/07/16 09:56:22;;;;;;;1999.90;999.90;;;16.70;68.60;;;;;;5071915;28;20175;-49
2021/07/16 09:59:10;;;;;;;1999.90;999.90;;;16.80;64.80;;;;;;5072290;28;20267;-56
2021/07/16 10:01:40;;;;;;;1999.90;999.90;;;16.80;58.00;;;;;;5071617;28;20157;-49
2021/07/16 10:04:18;;;;;;;1999.90;999.90;;;16.80;59.40;;;;;;5071702;28;20208;-47
2021/07/16 10:06:47;;;;;;;1999.90;999.90;;;16.90;56.90;;;;;;5071908;28;20148;-46
2021/07/16 10:09:15;;;;;;;1999.90;999.90;;;16.80;54.30;;;;;;5071611;28;20216;-57
2021/07/16 10:11:45;;;;;;;1999.90;999.90;;;17.00;63.00;;;;;;5071965;28;20583;-58
2021/07/16 10:14:14;;;;;;;1999.90;999.90;;;17.40;60.00;;;;;;5071380;28;20277;-53
2021/07/16 10:16:44;;;;;;;1999.90;999.90;;;17.50;57.50;;;;;;5071409;28;20157;-52
2021/07/16 10:19:13;;;;;;;1999.90;999.90;;;17.50;57.90;;;;;;5072281;28;20261;-46
2021/07/16 10:21:43;;;;;;;1999.90;999.90;;;17.60;56.00;;;;;;5071353;28;20201;-52
2021/07/16 10:24:12;;;;;;;1999.90;999.90;;;17.70;53.60;;;;;;5071414;28;20196;-51
2021/07/16 10:26:41;;;;;;;1999.90;999.90;;;17.60;54.30;;;;;;5071799;28;20200;-56
2021/07/16 10:29:38;;;;;;;1999.90;999.90;;;17.70;54.60;;;;;;5071281;28;20168;-57
2021/07/16 10:32:09;;;;;;;1999.90;999.90;;;17.70;56.50;;;;;;5065747;28;20368;-48
2021/07/16 10:34:40;;;;;;;1999.90;999.90;;;17.70;58.50;;;;;;5071350;28;20168;-48
2021/07/16 10:37:15;;;;;;;1999.90;999.90;;;17.80;57.70;;;;;;5069664;28;20169;-50
2021/07/16 10:39:47;;;;;;;1999.90;999.90;;;18.00;58.00;;;;;;5071951;28;20484;-52
2021/07/16 10:42:34;;;;;;;1999.90;999.90;;;18.20;57.00;;;;;;5070902;28;20164;-47
2021/07/16 10:45:04;;;;;;;1999.90;999.90;;;18.40;56.90;;;;;;5071166;28;20658;-54
2021/07/16 10:47:40;;;;;;;1999.90;999.90;;;18.60;52.90;;;;;;5071393;28;20156;-49
2021/07/16 10:50:27;;;;;;;1999.90;999.90;;;18.70;53.00;;;;;;5071629;28;20263;-46
2021/07/16 10:52:54;;;;;;;1999.90;999.90;;;18.70;52.70;;;;;;5068358;28;20184;-47
2021/07/16 10:55:40;;;;;;;1999.90;999.90;;;18.80;52.00;;;;;;5072449;28;20169;-43
2021/07/16 10:58:26;;;;;;;1999.90;999.90;;;18.70;49.60;;;;;;5072393;28;20180;-49
2021/07/16 11:00:55;;;;;;;1999.90;999.90;;;18.70;49.60;;;;;;5072384;28;20209;-48
2021/07/16 11:03:44;;;;;;;1999.90;999.90;;;18.70;49.00;;;;;;5072124;28;20200;-48
2021/07/16 11:06:15;;;;;;;1999.90;999.90;;;19.20;47.80;;;;;;5072059;28;20184;-47
2021/07/16 11:08:42;;;;;;;1999.90;999.90;;;19.10;50.20;;;;;;5072255;28;20255;-46
2021/07/16 11:11:12;;;;;;;1999.90;999.90;;;19.20;43.40;;;;;;5071780;28;20169;-46
2021/07/16 11:13:39;;;;;;;1999.90;999.90;;;19.10;44.30;;;;;;5071467;28;20223;-52
2021/07/16 11:16:27;;;;;;;1999.90;999.90;;;19.00;46.10;;;;;;5072467;28;20169;-46
2021/07/16 11:19:09;;;;;;;1999.90;999.90;;;19.00;43.90;;;;;;5072119;28;20238;-50
2021/07/16 11:21:49;;;;;;;1999.90;999.90;;;19.00;43.60;;;;;;5072114;28;20230;-50
2021/07/16 11:24:19;;;;;;;1999.90;999.90;;;19.00;42.70;;;;;;5072260;28;20714;-43
2021/07/16 11:26:53;;;;;;;1999.90;999.90;;;19.00;42.80;;;;;;5072173;28;20180;-55
2021/07/16 11:29:30;;;;;;;1999.90;999.90;;;20.20;47.30;;;;;;5072209;28;20196;-46
2021/07/16 11:32:13;;;;;;;1999.90;999.90;;;20.20;43.40;;;;;;5070971;28;20399;-55
2021/07/16 11:34:57;;;;;;;1999.90;999.90;;;20.00;42.10;;;;;;5072026;28;20200;-55
2021/07/16 11:37:33;;;;;;;1999.90;999.90;;;19.80;44.70;;;;;;5071997;28;20221;-58
2021/07/16 11:40:27;;;;;;;1999.90;999.90;;;19.70;43.90;;;;;;5071844;28;20184;-51
2021/07/16 11:42:59;;;;;;;1999.90;999.90;;;19.70;44.00;;;;;;5070996;28;20195;-49
2021/07/16 11:45:32;;;;;;;1999.90;999.90;;;19.60;43.30;;;;;;5072109;28;20176;-58
2021/07/16 11:48:10;;;;;;;1999.90;999.90;;;19.50;41.30;;;;;;5071931;28;20165;-48
2021/07/16 11:50:37;;;;;;;1999.90;999.90;;;19.50;42.30;;;;;;5074102;28;20721;-52
2021/07/16 11:53:09;;;;;;;1999.90;999.90;;;19.60;40.60;;;;;;5076012;28;20214;-57
2021/07/16 11:55:36;;;;;;;1999.90;999.90;;;19.60;40.70;;;;;;5075978;28;20156;-56
2021/07/16 11:58:12;;;;;;;1999.90;999.90;;;19.70;41.70;;;;;;5075563;28;20532;-57
2021/07/16 12:00:43;;;;;;;1999.90;999.90;;;19.80;42.10;;;;;;5075971;28;20172;-50
2021/07/16 12:03:19;;;;;;;1999.90;999.90;;;20.00;43.00;;;;;;5075477;28;20181;-51
2021/07/16 12:05:54;;;;;;;1999.90;999.90;;;20.20;44.10;;;;;;5075751;28;20258;-55
2021/07/16 12:08:29;;;;;;;1999.90;999.90;;;20.40;42.50;;;;;;5076136;28;20160;-58
2021/07/16 12:11:08;;;;;;;1999.90;999.90;;;20.40;41.00;;;;;;5075742;28;20625;-50
2021/07/16 12:13:36;;;;;;;1999.90;999.90;;;20.50;41.90;;;;;;5075350;28;20688;-59
2021/07/16 12:16:05;;;;;;;1999.90;999.90;;;20.50;38.40;;;;;;5075168;28;20543;-51
2021/07/16 12:18:33;;;;;;;1999.90;999.90;;;20.50;41.30;;;;;;5075211;28;20615;-58
2021/07/16 12:21:17;;;;;;;1999.90;999.90;;;20.70;40.10;;;;;;5075027;28;20173;-48
2021/07/16 12:23:48;;;;;;;1999.90;999.90;;;20.70;40.60;;;;;;5074863;28;20227;-48
2021/07/16 12:26:18;;;;;;;1999.90;999.90;;;20.70;40.30;;;;;;5075045;28;20702;-48
2021/07/16 12:28:46;;;;;;;1999.90;999.90;;;20.80;37.90;;;;;;5074846;28;20176;-59
2021/07/16 12:31:18;;;;;;;1999.90;999.90;;;20.80;38.40;;;;;;5074818;28;20164;-52
2021/07/16 12:33:46;;;;;;;1999.90;999.90;;;20.80;37.80;;;;;;5074564;28;20164;-55
2021/07/16 12:36:27;;;;;;;1999.90;999.90;;;20.90;38.70;;;;;;5074745;28;20256;-53
2021/07/16 12:38:58;;;;;;;1999.90;999.90;;;21.00;38.70;;;;;;5074621;28;20160;-49
2021/07/16 12:41:26;;;;;;;1999.90;999.90;;;21.00;36.00;;;;;;5074773;28;20236;-48
2021/07/16 12:43:54;;;;;;;1999.90;999.90;;;21.00;36.10;;;;;;5074378;28;20200;-57